Juergen K — PBKV — position and weather

sailwx.info

Track history (hours):
 
Tides and Currents Weather Stations Pressure Air Temp Water Temp Dewpoint Dewpoint Depression Visibility Wind Speed Wind Dir Waves Ship Positions

Juergen K

Last reported at 2016-Jun-27 00:33 UTC. Time now 2016-Jun-27 00:37 UTC.
Position N 51°58' E 003°43'.

; draft 5.6 m.

Type: Cargo ship. MMSI: 244329000.

Date/timePositionNaut miles runAvg speedWind from/ knotsBaromVisibWave heightAir tempDewpointWater temp
2016-Jun-27 00:33N 51°58' E 003°43'2 0.2
2016-Jun-26 14:31N 51°55' E 003°44'0 0.0
2016-Jun-26 13:31N 51°55' E 003°44'0 0.0
2016-Jun-26 12:31N 51°55' E 003°44'0 0.0
2016-Jun-26 11:31N 51°55' E 003°44'0 0.1
2016-Jun-26 10:22N 51°55' E 003°44'0 0.0
2016-Jun-26 09:25N 51°55' E 003°44'0 0.0
2016-Jun-26 08:07N 51°55' E 003°44'0 0.0
2016-Jun-26 07:25N 51°55' E 003°44'0 0.0
2016-Jun-26 04:04N 51°55' E 003°44'0 0.1
2016-Jun-26 03:31N 51°55' E 003°44'0 0.1
2016-Jun-26 02:28N 51°55' E 003°44'0 0.0
2016-Jun-26 01:31N 51°55' E 003°44'0 0.0
2016-Jun-26 00:31N 51°55' E 003°44'0 0.0
2016-Jun-25 23:22N 51°55' E 003°44'0 0.0
2016-Jun-25 19:13N 51°55' E 003°44'0 0.0
2016-Jun-25 15:25N 51°55' E 003°44'0 0.1
2016-Jun-25 14:22N 51°55' E 003°44'0 0.1
2016-Jun-25 13:25N 51°55' E 003°44'0 0.0
2016-Jun-25 12:31N 51°55' E 003°44'0 0.0
2016-Jun-25 11:31N 51°55' E 003°44'0 0.0
2016-Jun-25 10:25N 51°55' E 003°44'0 0.0
2016-Jun-25 03:13N 51°55' E 003°44'0 0.1
2016-Jun-25 02:31N 51°55' E 003°44'0 0.1
2016-Jun-25 01:25N 51°55' E 003°44'0 0.0
2016-Jun-24 23:25N 51°55' E 003°44'0 0.0
2016-Jun-24 19:25N 51°55' E 003°44'0 0.0
2016-Jun-24 18:16N 51°55' E 003°44'0 0.0
2016-Jun-24 17:31N 51°55' E 003°44'0 0.0
2016-Jun-24 16:31N 51°55' E 003°44'0 0.0
2016-Jun-24 15:16N 51°55' E 003°44'0 0.1
2016-Jun-24 14:31N 51°55' E 003°44'0 0.1
2016-Jun-24 13:28N 51°55' E 003°44'0 0.1
2016-Jun-24 12:28N 51°55' E 003°44'0 0.0
2016-Jun-24 11:31N 51°55' E 003°44'0 0.0
2016-Jun-24 10:10N 51°55' E 003°44'0 0.1
2016-Jun-24 09:25N 51°55' E 003°44'0 0.0
2016-Jun-24 04:19N 51°55' E 003°44'0 0.0
2016-Jun-24 03:07N 51°55' E 003°44'0 0.0
2016-Jun-24 02:25N 51°55' E 003°44'0 0.2
2016-Jun-24 01:28N 51°55' E 003°44'0 0.0
2016-Jun-24 00:25N 51°55' E 003°44'0 0.0
2016-Jun-23 23:31N 51°55' E 003°44'7 7.5
2016-Jun-23 22:33N 52°02' E 003°46'1211.6
2016-Jun-23 21:32N 52°14' E 003°47'1510.9
2016-Jun-23 20:08N 52°29' E 003°51'810.0
2016-Jun-23 19:18N 52°37' E 003°53'56 9.6
2016-Jun-23 13:31N 53°27' E 004°36'2110.7
2016-Jun-23 11:33N 53°35' E 005°08'9 9.3
2016-Jun-23 10:33N 53°39' E 005°23'9 8.6
2016-Jun-23 09:34N 53°41' E 005°37'9 8.7
2016-Jun-23 08:33N 53°44' E 005°51'9 9.1
2016-Jun-23 07:32N 53°47' E 006°05'2110.3
2016-Jun-23 05:33N 53°53' E 006°39'1111.2
2016-Jun-23 04:33N 53°56' E 006°57'1111.0
2016-Jun-23 03:31N 53°59' E 007°16'1010.6
2016-Jun-23 02:33N 54°01' E 007°33'10 9.8
2016-Jun-23 01:33N 54°02' E 007°49'10 9.6
2016-Jun-23 00:33N 54°01' E 008°06'9 9.2
2016-Jun-22 23:33N 54°00' E 008°21'8 7.8
2016-Jun-22 22:34N 53°58' E 008°34'8 8.1
2016-Jun-22 21:33N 53°52' E 008°44'1111.1
2016-Jun-22 20:33N 53°52' E 009°02'5 4.9
2016-Jun-22 19:33N 53°54' E 009°10'8 8.3
2016-Jun-22 18:34N 54°01' E 009°18'26 7.5
2016-Jun-22 15:08N 54°21' E 009°46'5 7.7
2016-Jun-22 14:33N 54°21' E 009°53'5 5.2
2016-Jun-22 13:32N 54°22' E 010°02'4 3.6
2016-Jun-22 12:33N 54°22' E 010°08'1 0.9
2016-Jun-22 11:33N 54°21' E 010°10'5 4.6
2016-Jun-22 10:33N 54°26' E 010°13'12 9.7
2016-Jun-22 09:21N 54°33' E 010°29'8 9.9
2016-Jun-22 08:33N 54°35' E 010°42'9 9.4
2016-Jun-22 07:33N 54°36' E 010°58'9 9.3
2016-Jun-22 06:34N 54°35' E 011°14'10 9.7
2016-Jun-22 05:33N 54°31' E 011°29'10 9.9
2016-Jun-22 04:33N 54°27' E 011°45'10 9.9
2016-Jun-22 03:33N 54°27' E 012°02'8 8.5
2016-Jun-22 02:33N 54°33' E 012°12'9 9.4
2016-Jun-22 01:33N 54°40' E 012°23'3010.0
2016-Jun-21 22:30N 54°53' E 013°10'1010.1
2016-Jun-21 21:31N 54°57' E 013°27'1010.0
2016-Jun-21 20:33N 55°00' E 013°42'10 9.6
2016-Jun-21 19:33N 55°04' E 013°58'10 9.8
2016-Jun-21 18:33N 55°10' E 014°11'10 9.9
2016-Jun-21 17:33N 55°18' E 014°22'10 9.6
2016-Jun-21 16:33N 55°25' E 014°33'10 9.6
2016-Jun-21 15:33N 55°31' E 014°46'9 9.5
2016-Jun-21 14:33N 55°35' E 015°01'9 9.2
2016-Jun-21 13:33N 55°40' E 015°15'188 8.1
2016-Jun-20 14:22N 58°37' E 017°15'  
2016-Jun-18 06:31N 58°40' E 017°07'0 0.0
2016-Jun-18 03:31N 58°40' E 017°07'0 0.0
2016-Jun-18 02:28N 58°40' E 017°07'0 0.0
2016-Jun-18 01:31N 58°40' E 017°07'0 0.0
2016-Jun-18 00:28N 58°40' E 017°07'0 0.0
2016-Jun-17 23:28N 58°40' E 017°07'0 0.0
2016-Jun-17 22:25N 58°40' E 017°07'0 0.0
2016-Jun-17 20:13N 58°40' E 017°07'0 0.0
2016-Jun-17 19:28N 58°40' E 017°07'0 0.0
2016-Jun-17 18:31N 58°40' E 017°07'0 0.0
2016-Jun-17 17:28N 58°40' E 017°07'0 0.0
2016-Jun-17 16:31N 58°40' E 017°07'0 0.0
2016-Jun-17 15:31N 58°40' E 017°07'0 0.0
2016-Jun-17 14:31N 58°40' E 017°07'0 0.0
2016-Jun-17 07:33N 58°39' E 017°07'9 9.4
2016-Jun-17 06:33N 58°37' E 017°25'  
Track history (hours):
 
Tides and Currents Weather Stations Pressure Air Temp Water Temp Dewpoint Dewpoint Depression Visibility Wind Speed Wind Dir Waves Ship Positions

Juergen K

Last reported at 2016-Jun-27 00:33 UTC. Time now 2016-Jun-27 00:37 UTC.
Position N 51°58' E 003°43'.

; draft 5.6 m.

Type: Cargo ship. MMSI: 244329000.

Date/timePositionNaut miles runAvg speedWind from/ knotsBaromVisibWave heightAir tempDewpointWater temp
2016-Jun-27 00:33N 51°58' E 003°43'2 0.2
2016-Jun-26 14:31N 51°55' E 003°44'0 0.0
2016-Jun-26 13:31N 51°55' E 003°44'0 0.0
2016-Jun-26 12:31N 51°55' E 003°44'0 0.0
2016-Jun-26 11:31N 51°55' E 003°44'0 0.1
2016-Jun-26 10:22N 51°55' E 003°44'0 0.0
2016-Jun-26 09:25N 51°55' E 003°44'0 0.0
2016-Jun-26 08:07N 51°55' E 003°44'0 0.0
2016-Jun-26 07:25N 51°55' E 003°44'0 0.0
2016-Jun-26 04:04N 51°55' E 003°44'0 0.1
2016-Jun-26 03:31N 51°55' E 003°44'0 0.1
2016-Jun-26 02:28N 51°55' E 003°44'0 0.0
2016-Jun-26 01:31N 51°55' E 003°44'0 0.0
2016-Jun-26 00:31N 51°55' E 003°44'0 0.0
2016-Jun-25 23:22N 51°55' E 003°44'0 0.0
2016-Jun-25 19:13N 51°55' E 003°44'0 0.0
2016-Jun-25 15:25N 51°55' E 003°44'0 0.1
2016-Jun-25 14:22N 51°55' E 003°44'0 0.1
2016-Jun-25 13:25N 51°55' E 003°44'0 0.0
2016-Jun-25 12:31N 51°55' E 003°44'0 0.0
2016-Jun-25 11:31N 51°55' E 003°44'0 0.0
2016-Jun-25 10:25N 51°55' E 003°44'0 0.0
2016-Jun-25 03:13N 51°55' E 003°44'0 0.1
2016-Jun-25 02:31N 51°55' E 003°44'0 0.1
2016-Jun-25 01:25N 51°55' E 003°44'0 0.0
2016-Jun-24 23:25N 51°55' E 003°44'0 0.0
2016-Jun-24 19:25N 51°55' E 003°44'0 0.0
2016-Jun-24 18:16N 51°55' E 003°44'0 0.0
2016-Jun-24 17:31N 51°55' E 003°44'0 0.0
2016-Jun-24 16:31N 51°55' E 003°44'0 0.0
2016-Jun-24 15:16N 51°55' E 003°44'0 0.1
2016-Jun-24 14:31N 51°55' E 003°44'0 0.1
2016-Jun-24 13:28N 51°55' E 003°44'0 0.1
2016-Jun-24 12:28N 51°55' E 003°44'0 0.0
2016-Jun-24 11:31N 51°55' E 003°44'0 0.0
2016-Jun-24 10:10N 51°55' E 003°44'0 0.1
2016-Jun-24 09:25N 51°55' E 003°44'0 0.0
2016-Jun-24 04:19N 51°55' E 003°44'0 0.0
2016-Jun-24 03:07N 51°55' E 003°44'0 0.0
2016-Jun-24 02:25N 51°55' E 003°44'0 0.2
2016-Jun-24 01:28N 51°55' E 003°44'0 0.0
2016-Jun-24 00:25N 51°55' E 003°44'0 0.0
2016-Jun-23 23:31N 51°55' E 003°44'7 7.5
2016-Jun-23 22:33N 52°02' E 003°46'1211.6
2016-Jun-23 21:32N 52°14' E 003°47'1510.9
2016-Jun-23 20:08N 52°29' E 003°51'810.0
2016-Jun-23 19:18N 52°37' E 003°53'56 9.6
2016-Jun-23 13:31N 53°27' E 004°36'2110.7
2016-Jun-23 11:33N 53°35' E 005°08'9 9.3
2016-Jun-23 10:33N 53°39' E 005°23'9 8.6
2016-Jun-23 09:34N 53°41' E 005°37'9 8.7
2016-Jun-23 08:33N 53°44' E 005°51'9 9.1
2016-Jun-23 07:32N 53°47' E 006°05'2110.3
2016-Jun-23 05:33N 53°53' E 006°39'1111.2
2016-Jun-23 04:33N 53°56' E 006°57'1111.0
2016-Jun-23 03:31N 53°59' E 007°16'1010.6
2016-Jun-23 02:33N 54°01' E 007°33'10 9.8
2016-Jun-23 01:33N 54°02' E 007°49'10 9.6
2016-Jun-23 00:33N 54°01' E 008°06'9 9.2
2016-Jun-22 23:33N 54°00' E 008°21'8 7.8
2016-Jun-22 22:34N 53°58' E 008°34'8 8.1
2016-Jun-22 21:33N 53°52' E 008°44'1111.1
2016-Jun-22 20:33N 53°52' E 009°02'5 4.9
2016-Jun-22 19:33N 53°54' E 009°10'8 8.3
2016-Jun-22 18:34N 54°01' E 009°18'26 7.5
2016-Jun-22 15:08N 54°21' E 009°46'5 7.7
2016-Jun-22 14:33N 54°21' E 009°53'5 5.2
2016-Jun-22 13:32N 54°22' E 010°02'4 3.6
2016-Jun-22 12:33N 54°22' E 010°08'1 0.9
2016-Jun-22 11:33N 54°21' E 010°10'5 4.6
2016-Jun-22 10:33N 54°26' E 010°13'12 9.7
2016-Jun-22 09:21N 54°33' E 010°29'8 9.9
2016-Jun-22 08:33N 54°35' E 010°42'9 9.4
2016-Jun-22 07:33N 54°36' E 010°58'9 9.3
2016-Jun-22 06:34N 54°35' E 011°14'10 9.7
2016-Jun-22 05:33N 54°31' E 011°29'10 9.9
2016-Jun-22 04:33N 54°27' E 011°45'10 9.9
2016-Jun-22 03:33N 54°27' E 012°02'8 8.5
2016-Jun-22 02:33N 54°33' E 012°12'9 9.4
2016-Jun-22 01:33N 54°40' E 012°23'3010.0
2016-Jun-21 22:30N 54°53' E 013°10'1010.1
2016-Jun-21 21:31N 54°57' E 013°27'1010.0
2016-Jun-21 20:33N 55°00' E 013°42'10 9.6
2016-Jun-21 19:33N 55°04' E 013°58'10 9.8
2016-Jun-21 18:33N 55°10' E 014°11'10 9.9
2016-Jun-21 17:33N 55°18' E 014°22'10 9.6
2016-Jun-21 16:33N 55°25' E 014°33'10 9.6
2016-Jun-21 15:33N 55°31' E 014°46'9 9.5
2016-Jun-21 14:33N 55°35' E 015°01'9 9.2
2016-Jun-21 13:33N 55°40' E 015°15'188 8.1
2016-Jun-20 14:22N 58°37' E 017°15'  
2016-Jun-18 06:31N 58°40' E 017°07'0 0.0
2016-Jun-18 03:31N 58°40' E 017°07'0 0.0
2016-Jun-18 02:28N 58°40' E 017°07'0 0.0
2016-Jun-18 01:31N 58°40' E 017°07'0 0.0
2016-Jun-18 00:28N 58°40' E 017°07'0 0.0
2016-Jun-17 23:28N 58°40' E 017°07'0 0.0
2016-Jun-17 22:25N 58°40' E 017°07'0 0.0
2016-Jun-17 20:13N 58°40' E 017°07'0 0.0
2016-Jun-17 19:28N 58°40' E 017°07'0 0.0
2016-Jun-17 18:31N 58°40' E 017°07'0 0.0
2016-Jun-17 17:28N 58°40' E 017°07'0 0.0
2016-Jun-17 16:31N 58°40' E 017°07'0 0.0
2016-Jun-17 15:31N 58°40' E 017°07'0 0.0
2016-Jun-17 14:31N 58°40' E 017°07'0 0.0
2016-Jun-17 07:33N 58°39' E 017°07'9 9.4
2016-Jun-17 06:33N 58°37' E 017°25'  

Dump ship's entire track history